Sunday, September 23, 2018, 2:34 AM GMT
Back to Local

CYUL, Montreal / Pierre Elliot Trudeau International Airport, Que

Location: , , Canada Lat: 45.467
Local Time: 2:34 AM GMT ( 2:34 GMT) Lon: -73.75
Time Zone: GMT Elev: 101 ft

Show me the last for .
Show Coded

Time T Td Feel RH Dir Speed Gust Alt SLP Vis Weather Sky Remarks
2018-09-23 02:00 50 39 48 66 250° 6 - 30.21 30.21 15 FEW250 None
2018-09-23 01:00 52 39 - 62 240° 5 - 30.22 30.22 15 FEW250 None
2018-09-23 00:00 54 39 - 58 260° 6 - 30.21 30.22 15 FEW250 None
2018-09-22 23:00 55 37 - 50 280° 8 - 30.20 30.21 30 FEW250 None
2018-09-22 22:00 57 37 - 47 270° 10 - 30.19 30.20 30 FEW250 None
2018-09-22 21:00 59 37 - 44 260° 10 - 30.18 30.19 30 FEW050 FEW250 None
2018-09-22 20:00 59 37 - 44 260° 10 20 30.19 30.20 30 FEW050 FEW210 FEW250 None
2018-09-22 19:00 59 37 - 44 270° 7 - 30.20 30.20 30 FEW045 FEW160 FEW250 None
2018-09-22 18:00 59 36 - 41 280° 12 - 30.21 30.21 30 FEW042 FEW160 SCT250 None
2018-09-22 17:00 57 36 - 44 270° 16 - 30.22 30.23 30 FEW040 FEW150 BKN250 None
2018-09-22 16:00 55 37 - 50 280° 15 - 30.23 30.23 30 FEW040 BKN250 None
2018-09-22 15:00 55 37 - 50 280° 12 - 30.23 30.23 30 FEW040 FEW090 SCT250 None
2018-09-22 14:00 52 37 - 57 280° 12 18 30.21 30.22 30 FEW040 SCT250 None
2018-09-22 13:00 52 36 - 53 300° 14 20 30.18 30.19 30 FEW043 SCT250 None
2018-09-22 12:00 52 37 - 57 300° 13 - 30.16 30.16 15 FEW043 SCT250 None
2018-09-22 11:00 50 37 47 61 300° 7 - 30.11 30.11 15 FEW035 FEW250 Pressure rising rapidly
2018-09-22 10:00 52 39 - 62 300° 14 26 30.04 30.04 15 FEW035 SCT250 Pressure rising rapidly
2018-09-22 09:00 55 45 - 66 300° 16 25 29.96 29.96 15 FEW035 BKN250 Pressure rising rapidly
2018-09-22 08:00 59 46 - 62 300° 22 33 29.88 29.88 15 BKN045 Pressure rising rapidly
2018-09-22 07:00 64 48 - 55 270° 16 31 29.79 29.80 15 SCT047 BKN062 Pressure rising rapidly
2018-09-22 06:00 66 52 - 59 250° 22 30 29.73 29.73 15 FEW050 BKN065 Pressure rising rapidly
2018-09-22 05:00 68 52 - 56 260° 26 37 29.67 29.67 15 FEW045 None
2018-09-22 04:00 72 61 76 68 240° 31 40 29.63 29.63 15 FEW035 None
2018-09-22 03:00 72 64 76 78 230° 30 40 29.61 29.62 15 FEW045 FEW160 None

Support USWX by starting your Amazon purchase here.